WEATHER DATA

YESTERDAY
Time Temp. Dewp. Hum. Bar.
00:16 -2.1 -2.6 96 1006.3
00:26 -2.2 -2.7 96 1006.3
00:36 -2.5 -3.1 95 1006.2
00:46 -2.7 -3.2 96 1006.2
00:56 -2.9 -3.4 96 1006
01:06 -3.1 -3.5 97 1005.9
01:16 -3.1 -3.3 98 1005.8
01:27 -3.3 -3.5 98 1005.7
01:36 -3.3 -3.5 98 1005.6
01:46 -3.4 -3.5 99 1005.6
01:57 -3.4 -3.5 99 1005.7
02:07 -3.3 -3.3 100 1005.7
02:17 -3.5 -3.6 99 1005.6
02:27 -3.5 -3.5 100 1005.6
02:37 -3.4 -3.4 100 1005.4
02:47 -3.2 -3.2 100 1005.4
02:57 -3.1 -3.1 100 1005.4
03:07 -2.9 -2.9 100 1005.4
03:18 -2.9 -2.9 100 1005.6
03:27 -3 -3.1 99 1005.3
03:37 -2.9 -2.9 100 1005.4
03:48 -2.6 -2.6 100 1005.3
03:58 -2.4 -2.4 100 1005.3
04:08 -2.2 -2.3 99 1005.2
04:17 -2.1 -2.3 98 1005.1
04:28 -2.1 -2.5 97 1005.2
04:38 -1.9 -2.3 97 1005.2
04:48 -1.7 -1.9 98 1005.2
04:59 -1.4 -1.8 97 1005.1
05:08 -1.3 -1.7 97 1005
05:18 -1.2 -1.7 96 1005
05:28 -1.1 -1.6 96 1005.1
05:39 -1.1 -1.6 96 1005.2
05:49 -1 -1.5 96 1005.1
05:59 -1 -1.5 96 1005.2
06:09 -0.8 -1.3 96 1005.1
06:19 -0.8 -1.3 96 1005
06:29 -0.8 -1.3 96 1004.9
06:39 -0.8 -1.3 96 1005
06:50 -0.7 -1.2 96 1005
06:59 -0.7 -1.2 96 1005
07:09 -0.6 -1 97 1005
07:19 -0.5 -1 96 1005
07:30 -0.6 -1.1 96 1004.9
07:40 -0.6 -1.1 96 1004.9
07:49 -0.6 -1 97 1004.9
08:00 -0.6 -1 97 1005.1
08:10 -0.6 -1 97 1005.1
08:20 -0.4 -0.6 98 1005.2
08:30 -0.4 -0.6 98 1005.1
08:40 -0.3 -0.5 98 1005.1
08:50 -0.2 -0.4 98 1005.1
09:00 -0.1 -0.3 98 1005
09:11 0 -0.2 98 1004.9
09:21 0.2 -0.1 98 1005
09:31 0.3 0 98 1005
09:40 0.4 0.1 98 1005
09:51 0.4 0 97 1005.1
10:01 0.4 0 97 1005
10:11 0.3 -0.1 97 1004.9
10:21 0.4 0.1 98 1004.9
10:31 0.4 0.1 98 1004.9
10:41 0.5 0.2 98 1004.9
10:51 0.6 0.3 98 1004.9
11:02 0.8 0.5 98 1004.9
11:12 0.9 0.6 98 1004.8
11:21 0.9 0.6 98 1004.8
11:32 1 0.7 98 1004.6
11:42 1 0.7 98 1004.3
11:52 1.1 0.8 98 1004.2
12:02 1.1 0.7 97 1004.1
12:12 1.1 0.7 97 1004
12:22 1.1 0.7 97 1003.9
12:32 1.2 0.8 97 1003.8
12:42 1.3 0.9 97 1003.6
12:53 1.3 0.9 97 1003.7
13:02 1.4 1 97 1003.5
13:12 1.4 1 97 1003.3
13:23 1.7 1.3 97 1003.5
13:33 1.8 1.2 96 1003.2
13:43 1.9 1.3 96 1003.1
13:53 2.1 1.5 96 1003
14:03 2 1.3 95 1002.9
14:13 2 1.3 95 1002.9
14:23 2 1.3 95 1002.8
14:44 1.9 1.2 95 1003
14:53 1.9 1.2 95 1003
15:03 1.8 1.2 96 1003.1
15:14 1.7 1.1 96 1003.1
15:24 1.7 1.1 96 1003.1
15:34 1.7 1.1 96 1003.3
15:44 1.6 1 96 1003.3
15:54 1.5 1.1 97 1003.3
16:04 1.4 1 97 1003.5
16:14 1.4 1 97 1003.6
16:25 1.4 1.1 98 1003.6
16:35 1.4 1.1 98 1003.8
16:44 1.3 1 98 1003.8
16:55 1.3 1 98 1003.7
17:05 1.3 1.2 99 1003.9
17:15 1.2 1.1 99 1004
17:25 1.2 1.1 99 1004
17:35 1.2 1.1 99 1004
17:45 1.2 1.2 100 1004
17:55 1.1 1.1 100 1004.1
18:05 1 1 100 1004.3
18:16 0.9 0.9 100 1004.2
18:25 0.8 0.8 100 1004.3
18:35 0.7 0.7 100 1004.5
18:46 0.7 0.7 100 1004.6
18:56 0.6 0.6 100 1004.7
19:06 0.5 0.5 100 1004.7
19:26 0.4 0.4 100 1004.9
19:36 0.3 0.3 100 1005
19:46 0.3 0.3 100 1004.9
19:57 0.3 0.3 100 1005
20:07 0.3 0.3 100 1005
20:16 0.3 0.3 100 1005.1
20:26 0.3 0.3 100 1005.2
20:37 0.3 0.3 100 1005.2
20:47 0.3 0.3 100 1005.3
20:57 0.3 0.3 100 1005.1
21:07 0.3 0.3 100 1005.2
21:17 0.2 0.2 100 1005.3
21:27 0.2 0.2 100 1005.2
21:37 0.2 0.2 100 1005.6
21:48 0.1 0.1 100 1005.3
22:07 0 0 100 1005.4
22:18 0 0 100 1005.9
22:28 -0.3 -0.3 100 1006
22:38 -0.5 -0.5 100 1006.1
22:48 -0.7 -0.7 100 1006.3
22:58 -0.7 -0.7 100 1006.6
23:08 -0.8 -0.8 100 1006.6
23:18 -0.9 -0.9 100 1006.6
23:28 -1 -1 100 1006.8
23:39 -1.1 -1.1 100 1007
23:48 -1.1 -1.1 100 1007
23:58 -1.2 -1.2 100 1007

DAY STATISTIC

2019-01-17
TEMPERATURE
AVERAGE
-0.2
HIGH
2.1
13:53
LOW
-3.5
02:17
PRESSURE
AVERAGE
1004.8
HIGH
1007.0
23:39
LOW
1002.8
14:23
DEWPOINT
AVERAGE
-0.5
HIGH
1.5
13:53
LOW
-3.6
02:17
HUMIDITY
AVERAGE
98
HIGH
100
02:07
LOW
95
00:36
TEMPERATURE (°C)
LOW
-3.5
HIGH
2.1
AVERAGE
-0.2
PRESSURE (hpa)
LOW
1002.8
HIGH
1007.0
AVERAGE
1004.8
DEVICE